Time;durP1;ratioP1;P1;durP2;ratioP2;P2;SDS_P1;SDS_P2;PMS_P1;PMS_P2;Temp;Humidity;BMP_temperature;BMP_pressure;BME280_temperature;BME280_humidity;BME280_pressure;Samples;Min_cycle;Max_cycle;Signal;HPM_P1;HPM_P2
2021/06/26 00:01:15;;;;;;;4.25;3.15;;;16.50;94.40;;;;;;4999480;28;20200;-89
2021/06/26 00:03:42;;;;;;;4.22;3.03;;;16.50;94.90;;;;;;4993595;28;20306;-89
2021/06/26 00:06:08;;;;;;;3.70;3.28;;;16.50;95.10;;;;;;4999468;28;20255;-88
2021/06/26 00:08:35;;;;;;;3.33;2.80;;;16.50;95.00;;;;;;4998310;28;20234;-88
2021/06/26 00:11:02;;;;;;;4.60;3.20;;;16.50;95.00;;;;;;4994310;28;20234;-90
2021/06/26 00:13:31;;;;;;;5.13;3.40;;;16.40;95.10;;;;;;4989478;28;20238;-88
2021/06/26 00:15:57;;;;;;;3.55;3.08;;;16.40;95.20;;;;;;4995926;28;20208;-88
2021/06/26 00:18:26;;;;;;;5.22;3.15;;;16.40;95.10;;;;;;4986950;28;20228;-89
2021/06/26 00:20:53;;;;;;;4.93;2.88;;;16.40;94.90;;;;;;4994829;28;20278;-88
2021/06/26 00:23:19;;;;;;;3.80;3.00;;;16.10;95.20;;;;;;4994946;28;20291;-88
2021/06/26 00:25:46;;;;;;;3.15;2.85;;;16.00;95.70;;;;;;4994910;28;20556;-88
2021/06/26 00:28:13;;;;;;;5.05;3.55;;;15.90;96.50;;;;;;4994252;28;20200;-88
2021/06/26 00:30:40;;;;;;;3.88;3.22;;;15.90;96.50;;;;;;4995539;28;20208;-89
2021/06/26 00:33:07;;;;;;;3.55;3.25;;;15.90;96.60;;;;;;4996084;28;20216;-88
2021/06/26 00:35:35;;;;;;;4.38;3.00;;;15.90;96.70;;;;;;4986689;28;20215;-88
2021/06/26 00:38:02;;;;;;;4.50;3.15;;;15.80;96.40;;;;;;4991266;28;20207;-88
2021/06/26 00:40:29;;;;;;;3.95;3.30;;;15.60;96.40;;;;;;4990533;28;20879;-88
2021/06/26 00:42:56;;;;;;;6.93;3.63;;;15.50;97.00;;;;;;4994863;28;20203;-88
2021/06/26 00:45:23;;;;;;;4.65;3.10;;;15.40;97.00;;;;;;4989848;28;20279;-88
2021/06/26 00:47:50;;;;;;;5.05;3.35;;;15.40;97.00;;;;;;4990392;28;20643;-88
2021/06/26 00:50:20;;;;;;;4.47;3.22;;;15.40;97.80;;;;;;4994358;28;20577;-88
2021/06/26 00:52:48;;;;;;;4.15;3.17;;;15.50;97.60;;;;;;4996766;28;20219;-88
2021/06/26 00:55:17;;;;;;;3.50;3.20;;;15.40;97.00;;;;;;4995757;28;20230;-89
2021/06/26 00:57:45;;;;;;;5.07;3.30;;;15.40;97.00;;;;;;4994998;28;20239;-88
2021/06/26 01:00:13;;;;;;;4.47;3.08;;;15.20;97.50;;;;;;4993251;28;20231;-88
2021/06/26 01:02:40;;;;;;;3.45;3.15;;;15.20;98.00;;;;;;4991666;28;20557;-88
2021/06/26 01:05:08;;;;;;;5.68;3.10;;;15.30;98.10;;;;;;4989190;28;20223;-89
2021/06/26 01:07:35;;;;;;;3.53;3.22;;;15.40;97.80;;;;;;4997454;28;20196;-90
2021/06/26 01:10:05;;;;;;;3.80;3.08;;;15.40;97.80;;;;;;4995883;28;20223;-89
2021/06/26 01:12:32;;;;;;;4.22;3.40;;;15.40;97.60;;;;;;4991500;28;20228;-89
2021/06/26 01:14:58;;;;;;;3.67;3.38;;;15.30;97.00;;;;;;4984570;28;20232;-89
2021/06/26 01:17:25;;;;;;;3.85;3.17;;;15.20;97.30;;;;;;4991187;28;20287;-88
2021/06/26 01:19:53;;;;;;;5.50;2.90;;;15.20;97.60;;;;;;4991464;28;20227;-89
2021/06/26 01:22:22;;;;;;;4.55;3.30;;;15.10;97.90;;;;;;4996013;28;20196;-88
2021/06/26 01:24:50;;;;;;;3.40;3.10;;;15.10;98.00;;;;;;4989876;28;20239;-90
2021/06/26 01:27:17;;;;;;;3.78;3.45;;;15.00;97.80;;;;;;4996066;28;20204;-88
2021/06/26 01:29:48;;;;;;;5.97;3.08;;;14.90;98.00;;;;;;4994735;28;20232;-88
2021/06/26 01:32:15;;;;;;;4.72;3.25;;;14.80;98.30;;;;;;4993377;28;20231;-88
2021/06/26 01:34:42;;;;;;;3.72;3.13;;;14.90;98.70;;;;;;4993113;28;20310;-88
2021/06/26 01:37:09;;;;;;;4.40;3.38;;;14.90;98.10;;;;;;4993022;28;20204;-88
2021/06/26 01:39:36;;;;;;;3.78;2.95;;;14.80;97.90;;;;;;4990358;28;20319;-88
2021/06/26 01:42:05;;;;;;;4.78;3.30;;;14.70;98.10;;;;;;4994924;28;20214;-88
2021/06/26 01:44:32;;;;;;;3.40;3.10;;;14.60;98.40;;;;;;4987497;28;20227;-88
2021/06/26 01:46:59;;;;;;;4.00;3.22;;;14.50;98.50;;;;;;4992350;28;20214;-88
2021/06/26 01:49:26;;;;;;;5.22;3.40;;;14.50;98.70;;;;;;4986258;28;20617;-88
2021/06/26 01:51:53;;;;;;;3.97;3.60;;;14.40;98.60;;;;;;4993420;28;20445;-88
2021/06/26 01:54:20;;;;;;;4.63;3.58;;;14.40;98.70;;;;;;4994916;28;20223;-88
2021/06/26 01:56:47;;;;;;;4.05;3.13;;;14.30;99.00;;;;;;4994577;28;20294;-89
2021/06/26 01:59:15;;;;;;;3.60;3.30;;;14.30;99.10;;;;;;4993853;28;20227;-88
2021/06/26 02:01:42;;;;;;;4.07;3.22;;;14.30;99.40;;;;;;4996010;28;20200;-88
2021/06/26 02:04:09;;;;;;;4.38;3.33;;;14.50;99.30;;;;;;4994567;28;20227;-88
2021/06/26 02:06:36;;;;;;;3.60;3.30;;;14.50;98.90;;;;;;4999841;28;20212;-89
2021/06/26 02:09:03;;;;;;;4.32;3.50;;;14.50;98.50;;;;;;4995283;28;20231;-88
2021/06/26 02:11:30;;;;;;;3.50;3.20;;;14.40;98.30;;;;;;4997288;28;20204;-89
2021/06/26 02:13:57;;;;;;;3.60;3.30;;;14.30;98.70;;;;;;4991464;28;20225;-88
2021/06/26 02:16:25;;;;;;;3.75;3.45;;;14.30;99.10;;;;;;4996834;28;20231;-89
2021/06/26 02:18:53;;;;;;;3.78;3.33;;;14.20;99.00;;;;;;4998498;28;20224;-89
2021/06/26 02:21:20;;;;;;;5.07;3.30;;;14.30;98.90;;;;;;4988581;28;20192;-88
2021/06/26 02:23:47;;;;;;;3.42;3.13;;;14.40;98.80;;;;;;4998104;28;20224;-89
2021/06/26 02:26:14;;;;;;;3.45;3.10;;;14.40;98.80;;;;;;4997038;28;20718;-88
2021/06/26 02:28:41;;;;;;;4.82;3.53;;;14.40;99.20;;;;;;4998839;28;20234;-88
2021/06/26 02:31:08;;;;;;;3.78;3.47;;;14.40;98.60;;;;;;4996019;28;20200;-90
2021/06/26 02:33:36;;;;;;;3.58;3.28;;;14.30;98.60;;;;;;5000882;28;20237;-89
2021/06/26 02:36:03;;;;;;;3.58;3.28;;;14.20;98.70;;;;;;5001595;28;20210;-89
2021/06/26 02:38:30;;;;;;;4.20;3.80;;;14.10;98.80;;;;;;4995207;28;20227;-88
2021/06/26 02:40:57;;;;;;;4.55;3.40;;;14.00;98.90;;;;;;5001457;28;20210;-90
2021/06/26 02:43:24;;;;;;;3.80;3.50;;;14.10;99.30;;;;;;4998303;28;20231;-88
2021/06/26 02:45:51;;;;;;;4.25;3.85;;;14.20;98.80;;;;;;4995341;28;20212;-89
2021/06/26 02:48:17;;;;;;;4.60;4.20;;;14.10;98.70;;;;;;4986958;28;20205;-88
2021/06/26 02:50:46;;;;;;;6.13;3.55;;;14.00;98.70;;;;;;4999165;28;20227;-88
2021/06/26 02:53:12;;;;;;;5.60;4.15;;;14.00;98.90;;;;;;4996953;28;20228;-88
2021/06/26 02:55:39;;;;;;;4.25;3.45;;;13.90;98.90;;;;;;4995847;28;20572;-88
2021/06/26 02:58:06;;;;;;;4.05;3.70;;;13.90;99.10;;;;;;4992108;28;20663;-88
2021/06/26 03:00:33;;;;;;;3.90;3.50;;;14.00;99.40;;;;;;4997283;28;20907;-88
2021/06/26 03:03:00;;;;;;;4.57;3.50;;;14.00;99.10;;;;;;4995009;28;20713;-87
2021/06/26 03:05:27;;;;;;;4.95;3.40;;;14.10;99.00;;;;;;4995192;28;20235;-88
2021/06/26 03:07:56;;;;;;;3.88;3.40;;;14.10;99.20;;;;;;5000068;28;20255;-88
2021/06/26 03:10:23;;;;;;;5.10;3.47;;;14.20;98.90;;;;;;4994906;28;20227;-89
2021/06/26 03:12:50;;;;;;;3.90;3.60;;;14.30;98.60;;;;;;5000415;28;20246;-88
2021/06/26 03:15:17;;;;;;;4.63;4.15;;;14.30;98.50;;;;;;4993083;28;20224;-88
2021/06/26 03:17:44;;;;;;;4.07;3.72;;;14.30;98.40;;;;;;4998501;28;20212;-89
2021/06/26 03:20:11;;;;;;;4.20;3.80;;;14.20;98.00;;;;;;4995539;28;20223;-89
2021/06/26 03:22:39;;;;;;;4.10;3.78;;;14.10;97.70;;;;;;4998074;28;20264;-88
2021/06/26 03:25:09;;;;;;;4.72;3.90;;;14.00;98.10;;;;;;5002240;28;20344;-88
2021/06/26 03:27:37;;;;;;;4.30;3.90;;;13.90;98.30;;;;;;4993066;28;20621;-88
2021/06/26 03:30:05;;;;;;;5.38;3.72;;;14.00;98.40;;;;;;4996098;28;20240;-88
2021/06/26 03:32:32;;;;;;;4.68;3.47;;;14.00;98.30;;;;;;4998285;28;20212;-90
2021/06/26 03:34:59;;;;;;;5.10;3.45;;;14.00;98.50;;;;;;4995570;28;20224;-88
2021/06/26 03:37:26;;;;;;;3.88;3.58;;;14.00;98.90;;;;;;4990828;28;20214;-89
2021/06/26 03:39:53;;;;;;;3.70;3.40;;;14.10;98.70;;;;;;4995757;28;20227;-89
2021/06/26 03:42:21;;;;;;;4.03;3.60;;;14.10;98.40;;;;;;4992126;28;20298;-88
2021/06/26 03:44:48;;;;;;;5.85;3.83;;;14.10;98.20;;;;;;5001209;28;20224;-89
2021/06/26 03:47:15;;;;;;;4.07;3.63;;;14.00;97.90;;;;;;5001984;28;20203;-88
2021/06/26 03:49:42;;;;;;;6.00;4.22;;;13.90;98.10;;;;;;5000910;28;20240;-89
2021/06/26 03:52:09;;;;;;;4.10;3.63;;;13.80;98.50;;;;;;5000908;28;20238;-87
2021/06/26 03:54:36;;;;;;;6.22;3.65;;;13.80;98.60;;;;;;4995516;28;20334;-87
2021/06/26 03:57:04;;;;;;;5.30;4.07;;;13.80;98.50;;;;;;5001679;28;20203;-88
2021/06/26 03:59:32;;;;;;;5.03;3.80;;;13.70;98.50;;;;;;4990104;28;20742;-88
2021/06/26 04:01:59;;;;;;;6.45;3.78;;;13.90;98.70;;;;;;4993903;28;20205;-88
2021/06/26 04:04:26;;;;;;;3.88;3.58;;;13.90;98.40;;;;;;4998375;28;20238;-88
2021/06/26 04:06:53;;;;;;;4.38;3.97;;;13.90;98.10;;;;;;4996973;28;20199;-89
2021/06/26 04:09:20;;;;;;;8.27;3.67;;;14.00;98.00;;;;;;4998346;28;20228;-89
2021/06/26 04:11:47;;;;;;;6.15;3.90;;;14.00;97.90;;;;;;5000227;28;20196;-88
2021/06/26 04:14:14;;;;;;;4.18;3.78;;;14.00;97.50;;;;;;4996859;28;20235;-88
2021/06/26 04:16:42;;;;;;;3.78;3.47;;;14.00;97.70;;;;;;4994181;28;20554;-88
2021/06/26 04:19:09;;;;;;;5.10;4.05;;;14.10;98.00;;;;;;5000035;28;20224;-88
2021/06/26 04:21:36;;;;;;;5.00;4.38;;;14.00;97.90;;;;;;5000487;28;20227;-89
2021/06/26 04:24:03;;;;;;;5.13;4.10;;;14.10;98.30;;;;;;4999262;28;20223;-88
2021/06/26 04:26:29;;;;;;;7.15;4.15;;;14.10;97.90;;;;;;4989880;28;20214;-88
2021/06/26 04:28:56;;;;;;;6.00;4.03;;;14.20;97.70;;;;;;4998981;28;20717;-88
2021/06/26 04:31:23;;;;;;;5.53;4.28;;;14.20;97.70;;;;;;4997383;28;20208;-89
2021/06/26 04:33:52;;;;;;;4.22;3.75;;;14.30;97.70;;;;;;4995468;28;20227;-88
2021/06/26 04:36:19;;;;;;;4.57;3.92;;;14.40;97.70;;;;;;4993152;28;20659;-88
2021/06/26 04:38:46;;;;;;;4.15;3.63;;;14.50;97.40;;;;;;4993489;28;20361;-87
2021/06/26 04:41:13;;;;;;;4.50;4.10;;;14.60;97.30;;;;;;4995565;28;20196;-88
2021/06/26 04:43:39;;;;;;;6.88;4.15;;;14.60;97.20;;;;;;4996199;28;20226;-88
2021/06/26 04:46:09;;;;;;;5.80;4.00;;;14.60;97.00;;;;;;4996170;28;20285;-88
2021/06/26 04:48:36;;;;;;;4.75;4.13;;;14.60;97.30;;;;;;4993545;28;20698;-88
2021/06/26 04:51:05;;;;;;;5.05;4.55;;;14.70;97.10;;;;;;4992130;28;20203;-89
2021/06/26 04:53:33;;;;;;;5.18;3.90;;;14.70;97.20;;;;;;4992114;28;20227;-89
2021/06/26 04:55:59;;;;;;;4.57;3.67;;;14.80;97.40;;;;;;4994018;28;20207;-88
2021/06/26 04:58:27;;;;;;;4.35;3.95;;;14.90;97.00;;;;;;4992382;28;20682;-88
2021/06/26 05:00:57;;;;;;;5.65;3.92;;;15.00;96.90;;;;;;4993419;28;20216;-89
2021/06/26 05:03:24;;;;;;;4.55;4.15;;;15.00;96.90;;;;;;4997423;28;20652;-88
2021/06/26 05:05:51;;;;;;;5.00;4.50;;;15.00;96.70;;;;;;4998052;28;20203;-87
2021/06/26 05:08:20;;;;;;;4.55;4.15;;;15.00;96.20;;;;;;4993636;28;20205;-89
2021/06/26 05:10:48;;;;;;;4.72;4.28;;;15.10;96.40;;;;;;4994034;28;20215;-87
2021/06/26 05:13:16;;;;;;;4.30;3.90;;;15.10;95.70;;;;;;4992511;28;20820;-88
2021/06/26 05:15:43;;;;;;;7.43;4.00;;;15.20;96.00;;;;;;4994068;28;20200;-87
2021/06/26 05:18:10;;;;;;;5.60;3.85;;;15.30;96.30;;;;;;4998736;28;20294;-89
2021/06/26 05:20:47;;;;;;;4.30;3.90;;;15.50;96.10;;;;;;4999182;28;20288;-88
2021/06/26 05:23:15;;;;;;;9.63;5.07;;;15.50;95.90;;;;;;4995928;28;20204;-89
2021/06/26 05:25:44;;;;;;;5.90;4.63;;;15.60;95.90;;;;;;4999624;28;20204;-89
2021/06/26 05:28:11;;;;;;;4.80;4.30;;;15.50;96.10;;;;;;4990391;28;20211;-88
2021/06/26 05:30:39;;;;;;;6.60;4.65;;;15.70;96.40;;;;;;4988169;28;20204;-88
2021/06/26 05:33:07;;;;;;;5.72;5.13;;;15.80;96.30;;;;;;4999098;28;20203;-88
2021/06/26 05:35:34;;;;;;;5.85;4.85;;;15.90;96.00;;;;;;4997181;28;20204;-88
2021/06/26 05:38:01;;;;;;;7.00;6.30;;;16.00;96.00;;;;;;4999771;28;20652;-88
2021/06/26 05:40:28;;;;;;;7.70;6.32;;;16.00;95.90;;;;;;4999504;28;20228;-88
2021/06/26 05:42:56;;;;;;;6.95;6.25;;;16.00;96.10;;;;;;4999611;28;20212;-87
2021/06/26 05:45:23;;;;;;;8.20;5.93;;;16.10;95.90;;;;;;5000324;28;20228;-88
2021/06/26 05:47:50;;;;;;;7.90;6.68;;;16.30;96.20;;;;;;5001894;28;20294;-88
2021/06/26 05:50:17;;;;;;;7.68;6.22;;;16.50;95.60;;;;;;4999814;28;20651;-88
2021/06/26 05:52:52;;;;;;;10.90;7.95;;;16.70;95.00;;;;;;5000528;28;20201;-88
2021/06/26 05:55:27;;;;;;;10.40;8.30;;;16.90;93.80;;;;;;4996578;28;20227;-88
2021/06/26 05:57:54;;;;;;;8.20;7.20;;;16.90;93.10;;;;;;4994795;28;20200;-91
2021/06/26 06:00:24;;;;;;;8.85;7.90;;;17.00;93.10;;;;;;5001064;28;20223;-88
2021/06/26 06:02:51;;;;;;;9.00;7.93;;;17.00;92.70;;;;;;4998757;28;20254;-89
2021/06/26 06:05:18;;;;;;;9.95;8.23;;;17.10;92.50;;;;;;4996606;28;20215;-91
2021/06/26 06:07:46;;;;;;;10.05;9.05;;;17.10;92.70;;;;;;4999325;28;20330;-87
2021/06/26 06:10:15;;;;;;;10.02;8.50;;;17.20;92.60;;;;;;4998189;28;20227;-88
2021/06/26 06:12:42;;;;;;;9.88;8.63;;;17.30;92.50;;;;;;4991545;28;20208;-90
2021/06/26 06:15:11;;;;;;;10.73;9.60;;;17.30;92.20;;;;;;4981946;28;20239;-89
2021/06/26 06:17:40;;;;;;;10.73;9.63;;;17.30;92.00;;;;;;4987685;28;20527;-89
2021/06/26 06:20:08;;;;;;;10.02;8.55;;;17.30;92.30;;;;;;4996652;28;20695;-89
2021/06/26 06:22:36;;;;;;;10.40;9.27;;;17.40;92.30;;;;;;4994455;28;20200;-88
2021/06/26 06:25:05;;;;;;;11.23;9.13;;;17.30;92.00;;;;;;4997821;28;20224;-89
2021/06/26 06:27:33;;;;;;;10.02;9.02;;;17.40;92.00;;;;;;4996608;28;20200;-88
2021/06/26 06:30:00;;;;;;;9.75;8.82;;;17.50;92.00;;;;;;4991261;28;20242;-90
2021/06/26 06:32:27;;;;;;;10.13;8.38;;;17.50;92.10;;;;;;4991600;28;20635;-88
2021/06/26 06:34:55;;;;;;;10.02;9.02;;;17.70;92.10;;;;;;4996839;28;20246;-89
2021/06/26 06:37:23;;;;;;;9.95;8.75;;;17.80;92.10;;;;;;4989495;28;20200;-89
2021/06/26 06:39:50;;;;;;;8.25;7.47;;;18.00;90.90;;;;;;4991886;28;20259;-92
2021/06/26 06:42:17;;;;;;;9.13;8.20;;;18.20;90.70;;;;;;4983035;28;20575;-89
2021/06/26 06:44:47;;;;;;;9.30;8.38;;;18.30;90.00;;;;;;4986965;28;20231;-88
2021/06/26 06:47:14;;;;;;;9.60;8.70;;;18.50;88.30;;;;;;4988355;28;20204;-90
2021/06/26 06:49:41;;;;;;;8.55;7.75;;;18.60;86.80;;;;;;4995996;28;20231;-88
2021/06/26 06:52:10;;;;;;;8.40;7.60;;;18.60;86.70;;;;;;4989643;28;20695;-89
2021/06/26 06:54:38;;;;;;;7.75;7.03;;;18.60;87.10;;;;;;4987726;28;20247;-89
2021/06/26 06:57:06;;;;;;;7.70;7.00;;;18.60;86.70;;;;;;4991633;28;20201;-89
2021/06/26 06:59:33;;;;;;;7.30;6.55;;;18.70;86.80;;;;;;4991021;28;21033;-89
2021/06/26 07:02:00;;;;;;;7.00;5.95;;;18.40;84.40;;;;;;4996505;28;20208;-90
2021/06/26 07:04:27;;;;;;;7.38;6.00;;;18.50;83.30;;;;;;4989818;28;20232;-89
2021/06/26 07:06:54;;;;;;;8.57;5.70;;;18.40;84.00;;;;;;4993188;28;20214;-89
2021/06/26 07:09:22;;;;;;;6.25;5.65;;;18.50;85.80;;;;;;4989343;28;20342;-89
2021/06/26 07:11:49;;;;;;;5.90;5.40;;;18.90;82.30;;;;;;4989117;28;20200;-88
2021/06/26 07:14:16;;;;;;;5.38;4.85;;;19.20;78.90;;;;;;4994752;28;20242;-88
2021/06/26 07:16:43;;;;;;;4.82;4.18;;;20.10;75.40;;;;;;4995359;28;20204;-87
2021/06/26 07:19:09;;;;;;;6.20;5.60;;;22.50;60.00;;;;;;4984380;28;20224;-87
2021/06/26 07:21:36;;;;;;;5.70;5.13;;;24.60;44.00;;;;;;4989213;28;20196;-87
2021/06/26 07:24:03;;;;;;;5.30;4.80;;;25.60;38.00;;;;;;4993222;28;20598;-89
2021/06/26 07:26:32;;;;;;;4.88;4.35;;;27.20;34.80;;;;;;4985096;28;20204;-90
2021/06/26 07:28:58;;;;;;;5.05;4.65;;;26.60;34.80;;;;;;4995598;28;20215;-87
2021/06/26 07:31:25;;;;;;;5.43;4.25;;;25.20;36.40;;;;;;4986698;28;20207;-86
2021/06/26 07:33:52;;;;;;;5.22;4.75;;;24.20;41.60;;;;;;4993831;28;20255;-83
2021/06/26 07:36:20;;;;;;;5.30;4.80;;;23.60;43.70;;;;;;4990628;28;20220;-87
2021/06/26 07:38:47;;;;;;;6.25;5.30;;;22.60;49.40;;;;;;4990403;28;20228;-89
2021/06/26 07:41:14;;;;;;;6.00;5.40;;;22.10;53.40;;;;;;4984554;28;20664;-89
2021/06/26 07:43:42;;;;;;;6.00;5.40;;;21.50;57.30;;;;;;4998897;28;20691;-88
2021/06/26 07:46:22;;;;;;;8.68;6.00;;;21.40;61.20;;;;;;4995715;28;20199;-89
2021/06/26 07:48:50;;;;;;;6.90;5.68;;;21.40;59.10;;;;;;4992255;28;20223;-89
2021/06/26 07:51:17;;;;;;;6.03;5.40;;;21.30;60.40;;;;;;4985537;28;20204;-86
2021/06/26 07:53:44;;;;;;;6.57;5.90;;;21.20;62.70;;;;;;4994008;28;20242;-88
2021/06/26 07:56:11;;;;;;;8.35;6.43;;;21.10;59.20;;;;;;4993497;28;20287;-88
2021/06/26 07:58:38;;;;;;;6.18;5.15;;;21.20;58.20;;;;;;4992034;28;20801;-91
2021/06/26 08:01:07;;;;;;;5.90;5.30;;;21.30;62.50;;;;;;4996814;28;20204;-88
2021/06/26 08:03:34;;;;;;;6.05;5.22;;;21.50;57.40;;;;;;4991278;28;20223;-87
2021/06/26 08:06:00;;;;;;;4.85;4.15;;;21.70;57.50;;;;;;4993139;28;20664;-87
2021/06/26 08:08:27;;;;;;;4.18;3.70;;;21.80;55.30;;;;;;4994363;28;20235;-87
2021/06/26 08:10:54;;;;;;;4.95;4.25;;;21.80;52.90;;;;;;4995855;28;20208;-86
2021/06/26 08:13:23;;;;;;;4.20;3.80;;;21.90;53.40;;;;;;4983557;28;20234;-88
2021/06/26 08:15:52;;;;;;;3.95;3.63;;;22.30;52.40;;;;;;4991625;28;20710;-87
2021/06/26 08:18:21;;;;;;;4.55;4.15;;;23.10;48.10;;;;;;4993481;28;20200;-83
2021/06/26 08:20:48;;;;;;;3.65;3.28;;;25.00;39.40;;;;;;4986290;28;20202;-86
2021/06/26 08:23:15;;;;;;;3.88;3.50;;;26.80;34.00;;;;;;4991089;28;20196;-86
2021/06/26 08:25:42;;;;;;;4.38;4.00;;;26.90;32.90;;;;;;5000206;28;20203;-86
2021/06/26 08:28:09;;;;;;;4.10;3.80;;;28.20;28.30;;;;;;4986582;28;20195;-86
2021/06/26 08:30:36;;;;;;;3.97;3.67;;;30.30;24.70;;;;;;4988487;28;20195;-89
2021/06/26 08:33:03;;;;;;;4.10;3.35;;;30.10;23.00;;;;;;4995223;28;20211;-86
2021/06/26 08:35:31;;;;;;;3.80;3.50;;;31.80;20.70;;;;;;4994127;28;20235;-87
2021/06/26 08:37:58;;;;;;;3.60;3.40;;;32.60;17.90;;;;;;4992348;28;20210;-87
2021/06/26 08:40:25;;;;;;;4.07;3.65;;;32.30;17.70;;;;;;4986487;28;20228;-88
2021/06/26 08:42:53;;;;;;;4.00;3.70;;;33.40;18.30;;;;;;4992622;28;20512;-86
2021/06/26 08:45:20;;;;;;;3.45;3.25;;;33.60;16.60;;;;;;4993553;28;20246;-86
2021/06/26 08:47:48;;;;;;;4.03;3.60;;;32.60;17.90;;;;;;4990692;28;20216;-87
2021/06/26 08:50:15;;;;;;;3.80;3.60;;;33.60;17.00;;;;;;4984178;28;20263;-85
2021/06/26 08:52:43;;;;;;;3.88;3.50;;;33.70;17.30;;;;;;4996094;28;20211;-84
2021/06/26 08:55:11;;;;;;;4.15;3.72;;;32.50;17.80;;;;;;4985933;28;20542;-85
2021/06/26 08:57:40;;;;;;;4.80;3.67;;;33.10;17.50;;;;;;4998105;28;20212;-85
2021/06/26 09:00:09;;;;;;;3.58;3.38;;;33.40;18.10;;;;;;4996765;28;20694;-85
2021/06/26 09:02:36;;;;;;;3.30;3.10;;;34.50;17.40;;;;;;4998672;28;20208;-84
2021/06/26 09:05:04;;;;;;;4.40;4.07;;;32.80;17.40;;;;;;4998731;28;20234;-85
2021/06/26 09:07:32;;;;;;;4.10;3.80;;;34.70;16.60;;;;;;4998161;28;20573;-85
2021/06/26 09:10:11;;;;;;;4.05;3.75;;;35.30;15.60;;;;;;4991940;28;20230;-84
2021/06/26 09:12:38;;;;;;;3.80;3.50;;;34.60;15.00;;;;;;4995587;28;20199;-87
2021/06/26 09:15:07;;;;;;;4.03;3.83;;;34.40;15.10;;;;;;4993815;28;20224;-87
2021/06/26 09:17:34;;;;;;;4.32;3.95;;;34.80;14.40;;;;;;4998298;28;20202;-85
2021/06/26 09:20:03;;;;;;;4.03;3.72;;;34.80;14.60;;;;;;4993571;28;20263;-85
2021/06/26 09:22:38;;;;;;;4.75;4.45;;;35.20;14.70;;;;;;4997556;28;20199;-85
2021/06/26 09:25:25;;;;;;;4.40;4.10;;;35.70;13.20;;;;;;4993461;28;20224;-84
2021/06/26 09:27:52;;;;;;;4.90;4.60;;;34.90;14.60;;;;;;4991986;28;20211;-85
2021/06/26 09:30:32;;;;;;;4.13;3.83;;;34.60;14.40;;;;;;4991807;28;20239;-85
2021/06/26 09:33:02;;;;;;;4.68;4.28;;;32.80;16.00;;;;;;4990028;28;20202;-86
2021/06/26 09:35:29;;;;;;;3.85;3.65;;;32.40;15.80;;;;;;4995449;28;20242;-85
2021/06/26 09:37:57;;;;;;;3.97;3.78;;;33.50;18.40;;;;;;4995399;28;20567;-85
2021/06/26 09:40:29;;;;;;;4.40;4.18;;;35.50;15.40;;;;;;4999600;28;20252;-85
2021/06/26 09:42:56;;;;;;;4.57;4.20;;;36.30;12.20;;;;;;5001436;28;20651;-85
2021/06/26 09:45:23;;;;;;;4.63;4.28;;;36.50;13.70;;;;;;5003651;28;20234;-85
2021/06/26 09:47:49;;;;;;;4.80;4.50;;;35.90;12.00;;;;;;4992171;28;20196;-85
2021/06/26 09:50:19;;;;;;;4.95;4.47;;;35.50;13.30;;;;;;4998396;28;20215;-85
2021/06/26 09:52:48;;;;;;;5.55;4.40;;;35.70;13.10;;;;;;4996633;28;20207;-86
2021/06/26 09:55:21;;;;;;;4.93;4.53;;;35.20;13.90;;;;;;4996124;28;20314;-85
2021/06/26 09:57:51;;;;;;;4.70;4.38;;;35.10;14.20;;;;;;4998370;28;20196;-85
2021/06/26 10:00:20;;;;;;;4.93;4.57;;;34.90;13.00;;;;;;4995458;28;20227;-86
2021/06/26 10:02:47;;;;;;;4.70;4.30;;;34.70;14.70;;;;;;4996975;28;20192;-85
2021/06/26 10:05:15;;;;;;;4.78;4.38;;;34.60;13.60;;;;;;4995736;28;20223;-85
2021/06/26 10:07:43;;;;;;;4.25;3.95;;;35.00;14.30;;;;;;5000278;28;20196;-86
2021/06/26 10:10:12;;;;;;;4.60;4.03;;;34.60;15.30;;;;;;5002722;28;20227;-85
2021/06/26 10:12:39;;;;;;;4.90;4.60;;;33.10;16.60;;;;;;5001504;28;20200;-86
2021/06/26 10:15:10;;;;;;;4.10;3.80;;;34.10;14.40;;;;;;5004614;28;20682;-86
2021/06/26 10:17:38;;;;;;;3.70;3.40;;;32.80;16.50;;;;;;5000881;28;20187;-87
2021/06/26 10:20:06;;;;;;;4.10;3.80;;;33.40;15.80;;;;;;4999943;28;20230;-85
2021/06/26 10:22:37;;;;;;;3.75;3.53;;;34.00;14.90;;;;;;5001225;28;20200;-85
2021/06/26 10:25:06;;;;;;;4.05;3.85;;;34.50;14.50;;;;;;4995307;28;20288;-85
2021/06/26 10:27:33;;;;;;;4.40;4.10;;;34.40;14.00;;;;;;4991507;28;20215;-84
2021/06/26 10:30:15;;;;;;;10.20;9.25;;;34.40;14.20;;;;;;4997141;28;20717;-85
2021/06/26 10:32:55;;;;;;;5.25;4.85;;;34.00;15.30;;;;;;4999441;28;20209;-85
2021/06/26 10:35:23;;;;;;;5.05;4.55;;;33.90;17.10;;;;;;4993017;28;20709;-85
2021/06/26 10:38:04;;;;;;;3.70;3.40;;;34.10;16.90;;;;;;4997247;28;20561;-84
2021/06/26 10:40:43;;;;;;;7.28;6.68;;;34.70;14.00;;;;;;4996285;28;20563;-85
2021/06/26 10:43:23;;;;;;;3.88;3.65;;;34.50;13.40;;;;;;4994328;28;20203;-86
2021/06/26 10:46:06;;;;;;;4.90;4.50;;;34.40;15.30;;;;;;4991976;28;20199;-84
2021/06/26 10:48:33;;;;;;;3.70;3.50;;;34.90;15.10;;;;;;4996269;28;20234;-86
2021/06/26 10:51:00;;;;;;;3.75;3.45;;;34.40;14.40;;;;;;4993724;28;20195;-85
2021/06/26 10:53:31;;;;;;;4.65;4.25;;;34.50;15.40;;;;;;4997263;28;20231;-85
2021/06/26 10:56:03;;;;;;;3.80;3.50;;;34.00;15.90;;;;;;4988523;28;20223;-87
2021/06/26 10:58:31;;;;;;;3.45;3.20;;;33.50;16.60;;;;;;4998782;28;20227;-86
2021/06/26 11:01:11;;;;;;;4.25;3.97;;;33.20;15.80;;;;;;4998312;28;20674;-88
2021/06/26 11:03:37;;;;;;;4.18;3.88;;;33.20;17.70;;;;;;4999349;28;20229;-85
2021/06/26 11:06:14;;;;;;;4.35;4.05;;;32.40;17.80;;;;;;4988987;28;20204;-85
2021/06/26 11:08:41;;;;;;;4.07;3.40;;;30.90;18.40;;;;;;4989092;28;20230;-85
2021/06/26 11:11:08;;;;;;;3.95;3.65;;;29.80;22.10;;;;;;4992348;28;20199;-85
2021/06/26 11:13:35;;;;;;;4.45;3.30;;;28.70;23.50;;;;;;4997181;28;20236;-85
2021/06/26 11:16:08;;;;;;;3.67;3.38;;;28.00;25.10;;;;;;4994390;28;20224;-85
2021/06/26 11:18:36;;;;;;;3.90;3.60;;;27.70;25.50;;;;;;4993434;28;20223;-84
2021/06/26 11:21:04;;;;;;;3.35;3.15;;;27.50;26.00;;;;;;4997923;28;20195;-84
2021/06/26 11:23:31;;;;;;;3.63;3.33;;;27.10;28.10;;;;;;4996249;28;20801;-85
2021/06/26 11:26:02;;;;;;;5.00;3.33;;;26.50;28.50;;;;;;4995894;28;20207;-84
2021/06/26 11:28:29;;;;;;;4.05;2.97;;;26.10;31.60;;;;;;4989880;28;20236;-82
2021/06/26 11:31:00;;;;;;;3.03;2.78;;;25.50;32.50;;;;;;4998726;28;20270;-82
2021/06/26 11:33:33;;;;;;;4.38;3.40;;;25.90;36.70;;;;;;4991534;28;20203;-82
2021/06/26 11:36:00;;;;;;;3.78;3.13;;;26.50;33.60;;;;;;4995631;28;21612;-82
2021/06/26 11:38:27;;;;;;;3.42;3.22;;;26.80;30.80;;;;;;4995597;28;20203;-82
2021/06/26 11:41:02;;;;;;;5.10;3.10;;;26.30;29.60;;;;;;4996759;28;20210;-82
2021/06/26 11:43:29;;;;;;;3.40;3.20;;;26.30;31.60;;;;;;4996804;28;20200;-82
2021/06/26 11:45:56;;;;;;;3.38;3.08;;;26.60;29.70;;;;;;4997528;28;20218;-82
2021/06/26 11:48:24;;;;;;;3.80;3.50;;;26.80;28.20;;;;;;4995693;28;20436;-82
2021/06/26 11:50:54;;;;;;;3.28;2.97;;;26.70;29.40;;;;;;4996527;28;20199;-82
2021/06/26 11:53:25;;;;;;;3.20;2.90;;;26.90;27.10;;;;;;4994216;28;20342;-82
2021/06/26 11:55:58;;;;;;;3.55;3.28;;;27.00;29.20;;;;;;4994724;28;20234;-83
2021/06/26 11:58:37;;;;;;;3.28;3.00;;;26.80;27.60;;;;;;4990831;28;20203;-82
2021/06/26 12:01:04;;;;;;;3.30;3.05;;;26.50;28.90;;;;;;4991901;28;20219;-82
2021/06/26 12:03:32;;;;;;;3.28;3.08;;;26.40;30.70;;;;;;4996478;28;20236;-84
2021/06/26 12:06:06;;;;;;;3.20;2.90;;;26.30;31.20;;;;;;4990686;28;20811;-82
2021/06/26 12:08:42;;;;;;;3.70;3.40;;;26.80;28.70;;;;;;4997069;28;20229;-84
2021/06/26 12:11:11;;;;;;;7.15;6.50;;;26.60;30.40;;;;;;4992811;28;20207;-84
2021/06/26 12:13:40;;;;;;;4.35;3.35;;;26.80;30.00;;;;;;4998398;28;20235;-82
2021/06/26 12:16:08;;;;;;;5.18;3.70;;;26.90;29.00;;;;;;5000483;28;20226;-81
2021/06/26 12:18:35;;;;;;;3.75;3.45;;;26.80;29.60;;;;;;4992718;28;20234;-82
2021/06/26 12:21:10;;;;;;;3.80;3.25;;;26.70;31.90;;;;;;4995638;28;20545;-83
2021/06/26 12:23:44;;;;;;;4.78;3.22;;;27.10;30.00;;;;;;4986930;28;20219;-82
2021/06/26 12:26:16;;;;;;;3.00;2.75;;;26.50;29.90;;;;;;4997214;28;20662;-84
2021/06/26 12:28:43;;;;;;;4.70;3.20;;;25.70;31.60;;;;;;4989009;28;20223;-84
2021/06/26 12:31:11;;;;;;;3.72;3.42;;;25.60;32.50;;;;;;4997638;28;20207;-84
2021/06/26 12:33:38;;;;;;;3.50;3.05;;;25.40;31.80;;;;;;4994893;28;20228;-85
2021/06/26 12:36:14;;;;;;;3.25;2.95;;;25.20;33.20;;;;;;4993509;28;20224;-84
2021/06/26 12:38:41;;;;;;;3.47;3.17;;;25.40;32.20;;;;;;4995458;28;20694;-82
2021/06/26 12:41:18;;;;;;;3.30;3.10;;;25.80;34.60;;;;;;4995442;28;20206;-85
2021/06/26 12:43:45;;;;;;;4.25;3.03;;;26.40;30.30;;;;;;4991423;28;20286;-83
2021/06/26 12:46:13;;;;;;;3.40;3.10;;;26.70;29.90;;;;;;4992609;28;20246;-83
2021/06/26 12:48:44;;;;;;;3.15;2.85;;;26.60;29.10;;;;;;4992760;28;20224;-83
2021/06/26 12:51:12;;;;;;;4.10;3.70;;;26.60;29.90;;;;;;4993142;28;20212;-83